Rhodanus — PGBC — position and weather

sailwx.info

Track history (hours):
 
Tides and Currents Weather Stations Pressure Air Temp Water Temp Dewpoint Dewpoint Depression Visibility Wind Speed Wind Dir Waves Ship Positions

Rhodanus

Last reported at 2014-Aug-26 21:30 UTC. Time now 2014-Aug-29 05:31 UTC.
Position N 31°36' E 031°44'.

Length 89 m; draft 4.4 m.

Type: Cargo ship. MMSI: 245848000.

Date/timePositionNaut miles runAvg speedWind from/ knotsBaromVisibWave heightAir tempDewpointWater temp
2014-Aug-26 21:30N 31°36' E 031°44'0 0.0
2014-Aug-26 20:33N 31°36' E 031°44'0 0.0
2014-Aug-26 18:27N 31°36' E 031°44'0 0.0
2014-Aug-26 17:33N 31°36' E 031°44'0 0.0
2014-Aug-26 15:30N 31°36' E 031°44'0 0.0
2014-Aug-26 14:30N 31°36' E 031°44'0 0.0
2014-Aug-26 12:03N 31°36' E 031°44'0 0.0
2014-Aug-26 11:33N 31°36' E 031°44'0 0.0
2014-Aug-26 10:33N 31°36' E 031°44'0 0.0
2014-Aug-26 02:03N 31°36' E 031°44'0 0.0
2014-Aug-26 01:30N 31°36' E 031°44'15 3.4
2014-Aug-25 21:07N 31°48' E 031°33'6 9.8
2014-Aug-25 20:33N 31°49' E 031°27'10 9.8
2014-Aug-25 19:34N 31°52' E 031°16'1010.0
2014-Aug-25 18:33N 31°55' E 031°05'11 9.9
2014-Aug-25 17:29N 31°58' E 030°53'1310.0
2014-Aug-25 16:10N 32°02' E 030°38'610.0
2014-Aug-25 15:33N 32°04' E 030°31'11 9.6
2014-Aug-25 14:23N 32°08' E 030°18'12 9.4
2014-Aug-25 13:06N 32°11' E 030°05'5 9.2
2014-Aug-25 12:33N 32°13' E 029°59'45 8.9
2014-Aug-25 07:31N 32°27' E 029°09'  
2014-Aug-22 03:15N 36°03' E 015°35'6 9.1
2014-Aug-22 02:33N 36°05' E 015°27'10 9.2
2014-Aug-22 01:29N 36°08' E 015°16'10 9.2
2014-Aug-22 00:23N 36°11' E 015°04'8 9.1
2014-Aug-21 23:33N 36°13' E 014°55'10 9.3
2014-Aug-21 22:25N 36°15' E 014°42'8 9.4
2014-Aug-21 21:34N 36°16' E 014°32'11 9.3
2014-Aug-21 20:25N 36°17' E 014°19'8 9.2
2014-Aug-21 19:33N 36°22' E 014°11'9 8.9
2014-Aug-21 18:34N 36°27' E 014°02'9 9.1
2014-Aug-21 17:33N 36°30' E 013°51'9 8.8
2014-Aug-21 16:34N 36°32' E 013°40'9 8.7
2014-Aug-21 15:34N 36°35' E 013°30'9 8.8
2014-Aug-21 14:33N 36°38' E 013°20'9 8.6
2014-Aug-21 13:33N 36°40' E 013°09'9 8.7
2014-Aug-21 12:33N 36°43' E 012°59'9 8.8
2014-Aug-21 11:34N 36°46' E 012°49'9 8.7
2014-Aug-21 10:33N 36°48' E 012°38'9 8.6
2014-Aug-21 09:34N 36°52' E 012°28'9 8.9
2014-Aug-21 08:34N 36°55' E 012°18'9 9.4
2014-Aug-21 07:34N 36°59' E 012°08'74 8.9
2014-Aug-20 23:18N 37°33' E 010°45'7 9.1
2014-Aug-20 22:33N 37°37' E 010°38'10 9.6
2014-Aug-20 21:33N 37°41' E 010°27'10 9.9
2014-Aug-20 20:33N 37°47' E 010°17'10 9.8
2014-Aug-20 19:34N 37°50' E 010°06'10 9.8
2014-Aug-20 18:33N 37°55' E 009°54'10 9.6
2014-Aug-20 17:33N 37°59' E 009°43'9 9.4
2014-Aug-20 16:33N 38°04' E 009°33'9 9.4
2014-Aug-20 15:33N 38°09' E 009°23'10 9.5
2014-Aug-20 14:31N 38°14' E 009°12'9 9.5
2014-Aug-20 13:33N 38°18' E 009°02'10 9.4
2014-Aug-20 12:28N 38°23' E 008°50'9 9.3
2014-Aug-20 11:31N 38°27' E 008°41'10 9.8
2014-Aug-20 10:30N 38°32' E 008°29'264 9.0
2014-Aug-19 05:15N 40°42' E 003°32'6 9.3
2014-Aug-19 04:33N 40°46' E 003°24'10 9.5
2014-Aug-19 03:33N 40°50' E 003°13'10 9.3
2014-Aug-19 02:30N 40°55' E 003°02'10 9.6
2014-Aug-19 01:30N 40°60' E 002°51'9 8.9
2014-Aug-19 00:31N 41°04' E 002°41'10 8.7
2014-Aug-18 23:24N 41°08' E 002°29'12 9.3
2014-Aug-18 22:09N 41°15' E 002°16'6 8.1
2014-Aug-18 21:25N 41°19' E 002°10'2 0.3
2014-Aug-18 13:15N 41°21' E 002°09'28 1.2
2014-Aug-17 13:33N 40°52' E 002°09'1010.1
2014-Aug-17 12:33N 40°42' E 002°08'1010.1
2014-Aug-17 11:33N 40°32' E 002°07'1010.0
2014-Aug-17 10:33N 40°22' E 002°06'1010.2
2014-Aug-17 09:34N 40°12' E 002°05'1010.1
2014-Aug-17 08:33N 40°02' E 002°04'1010.0
2014-Aug-17 07:33N 39°52' E 002°03'1010.2
2014-Aug-17 06:32N 39°42' E 002°02'1010.3
2014-Aug-17 05:33N 39°32' E 002°00'10 9.6
2014-Aug-17 04:33N 39°24' E 002°08'1010.2
2014-Aug-17 03:33N 39°18' E 002°18'1110.4
2014-Aug-17 02:33N 39°11' E 002°28'1010.5
2014-Aug-17 01:33N 39°04' E 002°38'1110.5
2014-Aug-17 00:33N 38°56' E 002°48'1110.4
2014-Aug-16 23:33N 38°50' E 002°58'1010.2
2014-Aug-16 22:33N 38°43' E 003°08'  
Track history (hours):
 
Tides and Currents Weather Stations Pressure Air Temp Water Temp Dewpoint Dewpoint Depression Visibility Wind Speed Wind Dir Waves Ship Positions

Rhodanus

Last reported at 2014-Aug-26 21:30 UTC. Time now 2014-Aug-29 05:31 UTC.
Position N 31°36' E 031°44'.

Length 89 m; draft 4.4 m.

Type: Cargo ship. MMSI: 245848000.

Date/timePositionNaut miles runAvg speedWind from/ knotsBaromVisibWave heightAir tempDewpointWater temp
2014-Aug-26 21:30N 31°36' E 031°44'0 0.0
2014-Aug-26 20:33N 31°36' E 031°44'0 0.0
2014-Aug-26 18:27N 31°36' E 031°44'0 0.0
2014-Aug-26 17:33N 31°36' E 031°44'0 0.0
2014-Aug-26 15:30N 31°36' E 031°44'0 0.0
2014-Aug-26 14:30N 31°36' E 031°44'0 0.0
2014-Aug-26 12:03N 31°36' E 031°44'0 0.0
2014-Aug-26 11:33N 31°36' E 031°44'0 0.0
2014-Aug-26 10:33N 31°36' E 031°44'0 0.0
2014-Aug-26 02:03N 31°36' E 031°44'0 0.0
2014-Aug-26 01:30N 31°36' E 031°44'15 3.4
2014-Aug-25 21:07N 31°48' E 031°33'6 9.8
2014-Aug-25 20:33N 31°49' E 031°27'10 9.8
2014-Aug-25 19:34N 31°52' E 031°16'1010.0
2014-Aug-25 18:33N 31°55' E 031°05'11 9.9
2014-Aug-25 17:29N 31°58' E 030°53'1310.0
2014-Aug-25 16:10N 32°02' E 030°38'610.0
2014-Aug-25 15:33N 32°04' E 030°31'11 9.6
2014-Aug-25 14:23N 32°08' E 030°18'12 9.4
2014-Aug-25 13:06N 32°11' E 030°05'5 9.2
2014-Aug-25 12:33N 32°13' E 029°59'45 8.9
2014-Aug-25 07:31N 32°27' E 029°09'  
2014-Aug-22 03:15N 36°03' E 015°35'6 9.1
2014-Aug-22 02:33N 36°05' E 015°27'10 9.2
2014-Aug-22 01:29N 36°08' E 015°16'10 9.2
2014-Aug-22 00:23N 36°11' E 015°04'8 9.1
2014-Aug-21 23:33N 36°13' E 014°55'10 9.3
2014-Aug-21 22:25N 36°15' E 014°42'8 9.4
2014-Aug-21 21:34N 36°16' E 014°32'11 9.3
2014-Aug-21 20:25N 36°17' E 014°19'8 9.2
2014-Aug-21 19:33N 36°22' E 014°11'9 8.9
2014-Aug-21 18:34N 36°27' E 014°02'9 9.1
2014-Aug-21 17:33N 36°30' E 013°51'9 8.8
2014-Aug-21 16:34N 36°32' E 013°40'9 8.7
2014-Aug-21 15:34N 36°35' E 013°30'9 8.8
2014-Aug-21 14:33N 36°38' E 013°20'9 8.6
2014-Aug-21 13:33N 36°40' E 013°09'9 8.7
2014-Aug-21 12:33N 36°43' E 012°59'9 8.8
2014-Aug-21 11:34N 36°46' E 012°49'9 8.7
2014-Aug-21 10:33N 36°48' E 012°38'9 8.6
2014-Aug-21 09:34N 36°52' E 012°28'9 8.9
2014-Aug-21 08:34N 36°55' E 012°18'9 9.4
2014-Aug-21 07:34N 36°59' E 012°08'74 8.9
2014-Aug-20 23:18N 37°33' E 010°45'7 9.1
2014-Aug-20 22:33N 37°37' E 010°38'10 9.6
2014-Aug-20 21:33N 37°41' E 010°27'10 9.9
2014-Aug-20 20:33N 37°47' E 010°17'10 9.8
2014-Aug-20 19:34N 37°50' E 010°06'10 9.8
2014-Aug-20 18:33N 37°55' E 009°54'10 9.6
2014-Aug-20 17:33N 37°59' E 009°43'9 9.4
2014-Aug-20 16:33N 38°04' E 009°33'9 9.4
2014-Aug-20 15:33N 38°09' E 009°23'10 9.5
2014-Aug-20 14:31N 38°14' E 009°12'9 9.5
2014-Aug-20 13:33N 38°18' E 009°02'10 9.4
2014-Aug-20 12:28N 38°23' E 008°50'9 9.3
2014-Aug-20 11:31N 38°27' E 008°41'10 9.8
2014-Aug-20 10:30N 38°32' E 008°29'264 9.0
2014-Aug-19 05:15N 40°42' E 003°32'6 9.3
2014-Aug-19 04:33N 40°46' E 003°24'10 9.5
2014-Aug-19 03:33N 40°50' E 003°13'10 9.3
2014-Aug-19 02:30N 40°55' E 003°02'10 9.6
2014-Aug-19 01:30N 40°60' E 002°51'9 8.9
2014-Aug-19 00:31N 41°04' E 002°41'10 8.7
2014-Aug-18 23:24N 41°08' E 002°29'12 9.3
2014-Aug-18 22:09N 41°15' E 002°16'6 8.1
2014-Aug-18 21:25N 41°19' E 002°10'2 0.3
2014-Aug-18 13:15N 41°21' E 002°09'28 1.2
2014-Aug-17 13:33N 40°52' E 002°09'1010.1
2014-Aug-17 12:33N 40°42' E 002°08'1010.1
2014-Aug-17 11:33N 40°32' E 002°07'1010.0
2014-Aug-17 10:33N 40°22' E 002°06'1010.2
2014-Aug-17 09:34N 40°12' E 002°05'1010.1
2014-Aug-17 08:33N 40°02' E 002°04'1010.0
2014-Aug-17 07:33N 39°52' E 002°03'1010.2
2014-Aug-17 06:32N 39°42' E 002°02'1010.3
2014-Aug-17 05:33N 39°32' E 002°00'10 9.6
2014-Aug-17 04:33N 39°24' E 002°08'1010.2
2014-Aug-17 03:33N 39°18' E 002°18'1110.4
2014-Aug-17 02:33N 39°11' E 002°28'1010.5
2014-Aug-17 01:33N 39°04' E 002°38'1110.5
2014-Aug-17 00:33N 38°56' E 002°48'1110.4
2014-Aug-16 23:33N 38°50' E 002°58'1010.2
2014-Aug-16 22:33N 38°43' E 003°08'  

Dump ship's entire track history